Flight Track Log - Related Links

Times and Time Zones

All times are in EDT time to prevent confusion due to time zone crossing. See the N2317S flight status page for this flight to view local times or setup timezone preferences in your user account.

Time Position Orientation Groundspeed Altitude Reporting Facility
EDT Latitude Longitude Course Direction KTS MPH feet Rate Location/Type
Thu 10:34:57 35.8561 -78.8083 293° West 99 114 700  Level Washington Center
Thu 10:36:11 35.8678 -78.8419 293° West 102 117 1,400 578 Climbing Washington Center
Thu 10:37:12 35.8878 -78.8711 310° West 109 125 2,000 522 Climbing Washington Center
Thu 10:38:06 35.9058 -78.8975 310° West 120 138 2,400 470 Climbing Washington Center
Thu 10:39:07 35.9389 -78.9092 344° North 137 158 2,900 537 Climbing Washington Center
Thu 10:40:09 35.9786 -78.9108 358° North 133 153 3,500 585 Climbing Washington Center
Thu 10:41:10 36.0122 -78.8994 15° North 127 146 4,100 595 Climbing Washington Center
Thu 10:42:10 36.0361 -78.8644 50° Northeast 129 148 4,700 446 Climbing Washington Center
Thu 10:43:11 36.0581 -78.8294 52° Northeast 135 155 5,000 149 Climbing Washington Center
Thu 10:44:11 36.0961 -78.8078 25° Northeast 165 190 5,000 -50 Level Washington Center
Thu 10:45:12 36.1386 -78.7811 27° Northeast 168 193 4,900  Descending Washington Center
Thu 10:46:12 36.1789 -78.7572 26° Northeast 170 196 5,000  Climbing Washington Center
Thu 10:47:13 36.2256 -78.7281 27° Northeast 168 193 4,900 95 Descending Washington Center
Thu 10:48:18 36.2700 -78.7042 23° Northeast 168 193 5,200 429 Climbing Washington Center
Thu 10:49:19 36.3019 -78.6847 26° Northeast 154 177 5,800 595 Climbing Washington Center
Thu 10:50:19 36.3419 -78.6631 24° Northeast 144 166 6,400 545 Climbing Washington Center
Thu 10:51:20 36.3736 -78.6489 20° North 139 160 6,900 545 Climbing Washington Center
Thu 10:52:20 36.4036 -78.6164 41° Northeast 139 160 7,500 508 Climbing Washington Center
Thu 10:53:18 36.4417 -78.6050 14° North 134 154 7,900 454 Climbing Washington Center
Thu 10:54:19 36.4814 -78.5964 10° North 134 154 8,400 492 Climbing Washington Center
Thu 10:55:20 36.5214 -78.5875 10° North 134 154 8,900 252 Climbing Washington Center
Thu 10:56:18 36.5656 -78.5736 14° North 147 169 8,900  Level Washington Center
Thu 10:57:19 36.6139 -78.5547 17° North 158 182 8,900  Level Washington Center
Thu 10:58:20 36.6622 -78.5436 10° North 170 196 8,900  Level Washington Center
Thu 10:59:20 36.7147 -78.5275 14° North 170 196 8,900  Level Washington Center
Thu 11:00:18 36.7608 -78.5139 13° North 165 190 8,900  Level Washington Center
Thu 11:01:18 36.7925 -78.5072 10° North 165 190 8,900  Level Washington Center
Thu 11:02:20 36.8492 -78.4886 15° North 165 190 8,900  Level Washington Center
Thu 11:03:18 36.8975 -78.4747 13° North 165 190 8,900  Level Washington Center
Thu 11:04:18 36.9458 -78.4611 13° North 165 190 8,900  Level Washington Center
Thu 11:05:19 36.9942 -78.4472 13° North 165 190 8,900  Level Washington Center
Thu 11:06:19 37.0425 -78.4333 13° North 165 190 8,900  Level Washington Center
Thu 11:07:19 37.0803 -78.4244 11° North 165 190 8,900  Level Washington Center
Thu 11:08:20 37.1306 -78.4081 15° North 165 190 8,900  Level Washington Center
Thu 11:09:20 37.1769 -78.3967 11° North 165 190 8,900  Level Washington Center
Thu 11:10:18 37.2231 -78.3828 13° North 165 190 8,900  Level Washington Center
Thu 11:11:19 37.2736 -78.3664 14° North 165 190 8,900  Level Washington Center
Thu 11:12:19 37.3217 -78.3550 11° North 165 190 8,900  Level Washington Center
Thu 11:13:20 37.3681 -78.3408 14° North 165 190 8,900  Level Washington Center
Thu 11:14:18 37.4122 -78.3269 14° North 165 190 8,900  Level Washington Center
Thu 11:15:19 37.4561 -78.3181 North 165 190 8,900  Level Washington Center
Thu 11:16:19 37.5022 -78.3064 11° North 165 190 8,900  Level Washington Center
Thu 11:17:18 37.5500 -78.3133 353° North 160 184 8,900  Level Washington Center
Thu 11:18:18 37.5978 -78.3283 346° North 160 184 8,900  Level Washington Center
Thu 11:19:20 37.6433 -78.3353 353° North 160 184 8,900  Level Washington Center
Thu 11:20:20 37.6892 -78.3419 353° North 160 184 8,900  Level Washington Center
Thu 11:21:18 37.7264 -78.3514 349° North 165 190 8,900  Level Washington Center
Thu 11:22:19 37.7744 -78.3556 356° North 175 201 8,900  Level Washington Center
Thu 11:23:20 37.8206 -78.3417 13° North 193 222 8,900  Level Washington Center
Thu 11:24:18 37.8669 -78.3247 16° North 187 215 8,900  Level Washington Center
Thu 11:25:18 37.9108 -78.3133 12° North 177 204 8,900  Level Washington Center
Thu 11:26:19 37.9656 -78.2969 13° North 177 204 8,900  Level Washington Center
Thu 11:27:20 38.0117 -78.2828 14° North 172 198 8,900  Level Washington Center
Thu 11:28:18 38.0600 -78.2633 18° North 166 191 8,900  Level Washington Center
Thu 11:29:19 38.1064 -78.2492 14° North 166 191 8,900  Level Washington Center
Thu 11:30:19 38.1525 -78.2350 14° North 166 191 8,900  Level Washington Center
Thu 11:31:20 38.1967 -78.2206 14° North 166 191 8,900  Level Washington Center
Thu 11:32:18 38.2469 -78.2067 12° North 166 191 8,900  Level Washington Center
Thu 11:33:19 38.2953 -78.1922 13° North 166 191 8,900  Level Washington Center
Thu 11:34:20 38.3392 -78.1806 12° North 166 191 8,900  Level Washington Center
Thu 11:36:25 38.4333 -78.1500 14° North 175 201 8,900 32 Level Potomac TRACON
Thu 11:37:25 38.4833 -78.1333 15° North 178 205 9,000 50 Climbing Potomac TRACON
Thu 11:38:25 38.5333 -78.1167 15° North 176 203 9,000  Level Potomac TRACON
Thu 11:39:31 38.5833 -78.1000 15° North 174 200 9,000 -50 Level Potomac TRACON
Thu 11:40:25 38.6333 -78.0833 15° North 172 198 8,900 -53 Descending Potomac TRACON
Thu 11:41:25 38.6667 -78.0667 21° North 167 192 8,900 50 Level Potomac TRACON
Thu 11:42:25 38.7167 -78.0667 360° North 167 192 9,000  Climbing Potomac TRACON
Thu 11:43:19 38.7500 -78.0500 21° North 167 192 8,900 -53 Descending Potomac TRACON
Thu 11:44:19 38.8000 -78.0333 15° North 166 191 8,900 50 Level Potomac TRACON
Thu 11:45:19 38.8500 -78.0167 15° North 166 191 9,000  Climbing Potomac TRACON
Thu 11:46:19 38.9000 -78.0000 15° North 165 190 8,900 -50 Descending Potomac TRACON
Thu 11:47:19 38.9333 -77.9833 21° North 168 193 8,900 50 Level Potomac TRACON
Thu 11:48:19 38.9833 -77.9833 360° North 168 193 9,000  Climbing Potomac TRACON
Thu 11:49:13 39.0167 -77.9667 21° North 171 197 8,900 -50 Descending Potomac TRACON
Thu 11:50:19 39.0667 -77.9500 15° North 169 194 8,900  Level Potomac TRACON
Thu 11:51:13 39.1167 -77.9333 14° North 170 196 8,900 53 Level Potomac TRACON
Thu 11:52:13 39.1667 -77.9167 14° North 170 196 9,000  Climbing Potomac TRACON
Thu 11:53:13 39.2000 -77.9000 21° North 168 193 8,900 -52 Descending Potomac TRACON
Thu 11:54:08 39.2500 -77.8833 14° North 165 190 8,900  Level Potomac TRACON
Thu 11:55:08 39.2833 -77.8833 360° North 167 192 8,900  Level Potomac TRACON
Thu 11:56:08 39.3333 -77.8667 14° North 167 192 8,900  Level Potomac TRACON
Thu 11:57:02 39.3667 -77.8500 21° North 163 188 8,900  Level Potomac TRACON
Thu 11:58:02 39.4167 -77.8167 27° Northeast 166 191 8,900  Level Potomac TRACON
Thu 12:00:30 39.5092 -77.7436 31° Northeast 180 207 8,900  Level New York Center
Thu 12:01:31 39.5486 -77.7100 33° Northeast 175 201 8,900  Level New York Center
Thu 12:02:31 39.5881 -77.6786 32° Northeast 175 201 8,900  Level New York Center
Thu 12:03:30 39.6275 -77.6447 33° Northeast 175 201 8,900  Level New York Center
Thu 12:04:31 39.6692 -77.6111 32° Northeast 175 201 8,900  Level New York Center
Thu 12:05:32 39.7089 -77.5717 37° Northeast 175 201 8,900  Level New York Center
Thu 12:06:33 39.7528 -77.5356 32° Northeast 180 207 8,900 51 Level New York Center
Thu 12:07:30 39.7878 -77.5036 35° Northeast 174 200 9,000  Climbing New York Center
Thu 12:08:31 39.8317 -77.4675 32° Northeast 174 200 8,900  Descending New York Center
Thu 12:09:31 39.8686 -77.4383 31° Northeast 174 200 9,000 50 Climbing New York Center
Thu 12:10:32 39.9128 -77.3994 34° Northeast 174 200 9,000 -33 Level New York Center
Thu 12:12:31 39.9936 -77.3311 33° Northeast 174 200 8,900 -33 Descending New York Center
Thu 12:13:32 40.0286 -77.3019 33° Northeast 174 200 8,900  Level New York Center
Thu 12:14:32 40.0703 -77.2650 34° Northeast 174 200 8,900  Level New York Center
Thu 12:15:32 40.1075 -77.2333 33° Northeast 174 200 8,900 51 Level New York Center
Thu 12:16:30 40.1511 -77.1967 33° Northeast 174 200 9,000  Climbing New York Center
Thu 12:17:30 40.1861 -77.1672 33° Northeast 174 200 8,900 -50 Descending New York Center
Thu 12:18:31 40.2300 -77.1278 34° Northeast 174 200 8,900  Level New York Center
Thu 12:19:32 40.2692 -77.0958 32° Northeast 169 194 8,900 50 Level New York Center
Thu 12:20:32 40.3086 -77.0614 34° Northeast 174 200 9,000 50 Climbing New York Center
Thu 12:21:33 40.3478 -77.0269 34° Northeast 174 200 9,000  Level New York Center
Thu 12:22:30 40.3850 -76.9947 33° Northeast 174 200 9,000  Level New York Center
Thu 12:23:30 40.4264 -76.9603 32° Northeast 174 200 9,000  Level New York Center
Thu 12:24:31 40.4658 -76.9256 34° Northeast 174 200 9,000 -50 Level New York Center
Thu 12:25:31 40.5072 -76.8911 32° Northeast 174 200 8,900 -50 Descending New York Center
Thu 12:26:32 40.5464 -76.8564 34° Northeast 174 200 8,900  Level New York Center
Thu 12:27:32 40.5858 -76.8217 34° Northeast 174 200 8,900  Level New York Center
Thu 12:28:30 40.6250 -76.7867 34° Northeast 174 200 8,900  Level New York Center
Thu 12:29:30 40.6644 -76.7519 34° Northeast 174 200 8,900  Level New York Center
Thu 12:30:31 40.7036 -76.7169 34° Northeast 174 200 8,900  Level New York Center
Thu 12:31:32 40.7408 -76.6844 33° Northeast 174 200 8,900  Level New York Center
Thu 12:32:32 40.7819 -76.6497 33° Northeast 174 200 8,900  Level New York Center
Thu 12:33:30 40.8150 -76.6142 39° Northeast 174 200 8,900  Level New York Center
Thu 12:34:31 40.8564 -76.5792 33° Northeast 174 200 8,900  Level New York Center
Thu 12:35:31 40.8997 -76.5444 31° Northeast 174 200 8,900  Level New York Center
Thu 12:36:31 40.9369 -76.5064 38° Northeast 174 200 8,900  Level New York Center
Thu 12:37:32 40.9761 -76.4739 32° Northeast 174 200 8,900  Level New York Center
Thu 12:38:32 41.0153 -76.4389 34° Northeast 174 200 8,900  Level New York Center
Thu 12:39:30 41.0544 -76.4036 34° Northeast 174 200 8,900  Level New York Center
Thu 12:40:31 41.0892 -76.3733 33° Northeast 174 200 8,900  Level New York Center
Thu 12:41:32 41.1328 -76.3356 33° Northeast 174 200 8,900 50 Level New York Center
Thu 12:42:32 41.1719 -76.3003 34° Northeast 174 200 9,000 50 Climbing New York Center
Thu 12:43:32 41.2111 -76.2647 34° Northeast 174 200 9,000  Level New York Center
Thu 12:44:31 41.2458 -76.2347 33° Northeast 174 200 9,000 -50 Level New York Center
Thu 12:45:31 41.2847 -76.2019 32° Northeast 174 200 8,900 -50 Descending New York Center
Thu 12:46:32 41.3261 -76.1611 37° Northeast 174 200 8,900  Level New York Center
Thu 12:47:33 41.3653 -76.1281 32° Northeast 174 200 8,900  Level New York Center
Thu 12:48:30 41.4042 -76.0925 34° Northeast 174 200 8,900  Level New York Center
Thu 12:49:30 41.4411 -76.0622 32° Northeast 174 200 8,900  Level New York Center
Thu 12:51:00 41.4985 -76.0080 35° Northeast  Level FlightAware Approximate
Thu 12:58:00 41.7663 -75.7539 35° Northeast  Level FlightAware Approximate
Thu 12:59:00 41.8045 -75.7176 35° Northeast  Level FlightAware Approximate
Thu 13:00:00 41.8428 -75.6812 35° Northeast  Level FlightAware Approximate
Thu 13:01:00 41.8810 -75.6449 35° Northeast  Level FlightAware Approximate
Thu 13:02:00 41.9192 -75.6084 35° Northeast  Level FlightAware Approximate
Thu 13:02:52 41.9906 -75.5603 34° Northeast 183 211 8,900  Level Boston Center
Thu 13:03:00 41.9574 -75.5719 35° Northeast  Level FlightAware Approximate
Thu 13:03:53 42.0292 -75.5231 36° Northeast 198 228 8,900  Level Boston Center
Thu 13:04:00 41.9956 -75.5354 35° Northeast  Level FlightAware Approximate
Thu 13:04:53 42.0719 -75.4861 33° Northeast 198 228 8,900  Level Boston Center
Thu 13:05:00 42.0338 -75.4988 35° Northeast  Level FlightAware Approximate
Thu 13:05:53 42.1125 -75.4489 34° Northeast 188 216 8,900  Level Boston Center
Thu 13:06:00 42.0724 -75.4630 34° Northeast  Level FlightAware Approximate
Thu 13:06:52 42.1553 -75.4089 35° Northeast 183 211 8,900  Level Boston Center
Thu 13:07:00 42.1112 -75.4277 34° Northeast  Level FlightAware Approximate
Thu 13:07:53 42.2022 -75.3661 34° Northeast 178 205 8,900  Level Boston Center
Thu 13:08:00 42.1500 -75.3923 34° Northeast  Level FlightAware Approximate
Thu 13:08:54 42.2428 -75.3289 34° Northeast 173 199 8,900  Level Boston Center
Thu 13:09:54 42.2853 -75.2944 31° Northeast 173 199 8,900  Level Boston Center
Thu 13:10:51 42.3303 -75.2486 37° Northeast 184 212 8,900  Level Boston Center
Thu 13:11:52 42.3708 -75.2056 38° Northeast 184 212 8,900 246 Level Boston Center
Thu 13:12:53 42.4156 -75.1653 34° Northeast 190 219 9,400 545 Climbing Boston Center
Thu 13:13:53 42.4519 -75.1331 33° Northeast 169 194 10,000 655 Climbing Boston Center
Thu 13:14:52 42.4900 -75.1008 32° Northeast 169 194 10,700 454 Climbing Boston Center
Thu 13:15:52 42.5306 -75.0633 34° Northeast 164 189 10,900 99 Climbing Boston Center
Thu 13:16:53 42.5733 -75.0200 37° Northeast 177 204 10,900  Level Boston Center
Thu 13:17:54 42.6158 -74.9794 35° Northeast 182 209 10,900  Level Boston Center
Thu 13:18:54 42.6586 -74.9358 37° Northeast 182 209 10,900  Level Boston Center
Thu 13:19:52 42.7031 -74.8953 34° Northeast 182 209 10,900  Level Boston Center
Thu 13:20:52 42.7458 -74.8547 35° Northeast 182 209 10,900  Level Boston Center
Thu 13:21:52 42.7925 -74.8111 34° Northeast 182 209 10,900 50 Level Boston Center
Thu 13:22:53 42.8331 -74.7675 38° Northeast 187 215 11,000  Climbing Boston Center
Thu 13:23:53 42.8775 -74.7267 34° Northeast 187 215 10,900  Descending Boston Center
Thu 13:24:54 42.9222 -74.6858 34° Northeast 193 222 11,000 50 Climbing Boston Center
Thu 13:25:54 42.9669 -74.6419 36° Northeast 193 222 11,000 -51 Level Boston Center
Thu 13:26:51 43.0114 -74.5953 38° Northeast 202 232 10,900  Descending Boston Center
Thu 13:27:52 43.0539 -74.5569 33° Northeast 202 232 11,000 50 Climbing Boston Center
Thu 13:28:52 43.0986 -74.5131 36° Northeast 196 226 11,000 -50 Level Boston Center
Thu 13:29:53 43.1431 -74.4719 34° Northeast 196 226 10,900  Descending Boston Center
Thu 13:30:53 43.1875 -74.4278 36° Northeast 201 231 11,000  Climbing Boston Center
Thu 13:31:54 43.2319 -74.3836 36° Northeast 201 231 10,900  Descending Boston Center
Thu 13:32:52 43.2767 -74.3422 34° Northeast 201 231 11,000  Climbing Boston Center
Thu 13:33:53 43.3211 -74.2981 36° Northeast 201 231 10,900  Descending Boston Center
Thu 13:34:54 43.3656 -74.2564 34° Northeast 196 226 11,000  Climbing Boston Center
Thu 13:35:52 43.4100 -74.2150 34° Northeast 196 226 10,900 -51 Descending Boston Center
Thu 13:36:52 43.4503 -74.1675 41° Northeast 196 226 10,900  Level Boston Center
Thu 13:37:53 43.4947 -74.1258 34° Northeast 201 231 10,900  Level Boston Center
Thu 13:38:54 43.5389 -74.0897 31° Northeast 196 226 10,900 51 Level Boston Center
Thu 13:39:51 43.5792 -74.0481 37° Northeast 190 219 11,000  Climbing Boston Center
Thu 13:40:52 43.6214 -74.0089 34° Northeast 179 206 10,900  Descending Boston Center
Thu 13:41:52 43.6531 -73.9753 38° Northeast 173 199 11,000  Climbing Boston Center
Thu 13:42:53 43.6994 -73.9275 37° Northeast 173 199 10,900 -99 Descending Boston Center
Thu 13:43:53 43.7397 -73.8883 35° Northeast 173 199 10,800 -198 Descending Boston Center
Thu 13:44:54 43.7839 -73.8492 33° Northeast 173 199 10,500 -397 Descending Boston Center
Thu 13:45:54 43.8219 -73.8039 41° Northeast 178 205 10,000 -458 Descending Boston Center
Thu 13:46:52 43.8661 -73.7589 36° Northeast 178 205 9,600 -458 Descending Boston Center
Thu 13:47:52 43.9106 -73.7167 34° Northeast 185 213 9,100 -347 Descending Boston Center
Thu 13:48:53 43.9483 -73.6800 35° Northeast 185 213 8,900 -295 Descending Boston Center
Thu 13:49:54 43.9883 -73.6406 35° Northeast 185 213 8,500 -446 Descending Boston Center
Thu 13:50:54 44.0306 -73.6008 34° Northeast 180 207 8,000 -559 Descending Boston Center
Thu 13:51:52 44.0725 -73.5556 38° Northeast 180 207 7,400 -508 Descending Boston Center
Thu 13:52:52 44.1125 -73.5158 35° Northeast 175 201 7,000 -347 Descending Boston Center
Thu 13:53:53 44.1525 -73.4758 36° Northeast 175 201 6,700 -347 Descending Boston Center
Thu 13:54:53 44.1925 -73.4389 34° Northeast 175 201 6,300 -550 Descending Boston Center
Thu 13:55:53 44.2386 -73.4050 28° Northeast 170 196 5,600 -595 Descending Boston Center
Thu 13:56:54 44.2847 -73.3739 26° Northeast 170 196 5,100 -595 Descending Boston Center
Thu 13:57:54 44.3308 -73.3425 26° Northeast 180 207 4,400 -610 Descending Boston Center
Thu 13:58:52 44.3767 -73.3144 24° Northeast 180 207 3,900 -610 Descending Boston Center
Thu 13:59:52 44.4228 -73.2800 28° Northeast 180 207 3,200 -750 Descending Boston Center
Thu 14:00:52 44.4689 -73.2517 24° Northeast 180 207 2,400 -800 Descending Boston Center
Thu 14:02:00 44.4711 -73.1785 36° Northeast  Level Estimated
Thu 14:09:00 44.4667 -73.1500 36° Northeast  Level FlightAware Approximate
Thu 14:10:00 44.4719 -73.1533 36° Northeast  Level Estimated
Thu 14:11:00 44.4667 -73.1500 36° Northeast  Level FlightAware Approximate
Thu 14:12:00 44.4719 -73.1533 36° Northeast  Level Estimated

Login

Don't have an account? Register now (free) for customized features, flight alerts, and more!